Nabq, Egypt
Current Conditions -  °F | °C
As of 7:00 AM on Thursday 23 Oct 2014 (Local Time) from HESH Reporting Station
Clear Clear  
Wind Chill: 23°   Ceiling: Unl
Heat Index: 23°   Visibility: 6mi
Dew Point: 16°   Wind: 2mph
Humidity: 65%   Direction: 360°N
Pressure: 29.94"   Gusts: NA
Location:  28.07°N, 34.42°E
Report Text: HESH 230500Z 36002KT CAVOK 23/16 Q1014 NOSIG
Loading
Personal Weather Stations






























Interactive Weather Map
Tropical Storm Tracking
New forecast layout! Learn more

10-Day Weather Forecast

Advertisements
Track Severe Weather on mobile